Terminal Aerodrome Forecast
Issued by NWS

Home | Current Version | Previous Version | Text Only | Print | Product List | Glossary On
Versions: 1 2 3 4 5 6 7 8 9 10 11 12 13 14 15 16 17 18 19 20 21 22
000
FTUS43 KGRR 032335
TAFLAN
TAF
KLAN 032335Z 0400/0424 28010KT P6SM SCT080
     FM040130 24004KT P6SM BKN080
     FM041500 28010G20KT P6SM SCT050=

USA.gov is the U.S. government's official web portal to all federal, state and local government web resources and services.